Time;durP1;ratioP1;P1;durP2;ratioP2;P2;SDS_P1;SDS_P2;PMS_P1;PMS_P2;Temp;Humidity;BMP_temperature;BMP_pressure;BME280_temperature;BME280_humidity;BME280_pressure;Samples;Min_cycle;Max_cycle;Signal;HPM_P1;HPM_P2
2023/05/03 00:00:20;;;;;;;9.05;5.93;;;;;;;11.11;57.30;101608.41;4121299;28;20047;-63
2023/05/03 00:02:24;;;;;;;18.60;6.68;;;;;;;11.14;56.84;101613.69;4127663;28;20117;-63
2023/05/03 00:04:27;;;;;;;10.05;6.75;;;;;;;11.14;57.07;101603.28;4129745;28;20046;-63
2023/05/03 00:06:30;;;;;;;13.13;6.43;;;;;;;11.14;57.27;101620.59;4122820;28;20051;-63
2023/05/03 00:08:33;;;;;;;11.23;7.10;;;;;;;11.22;56.33;101613.94;4131242;28;20570;-63
2023/05/03 00:10:36;;;;;;;11.90;6.97;;;;;;;11.09;56.45;101622.19;4132466;28;20455;-63
2023/05/03 00:12:40;;;;;;;13.98;6.55;;;;;;;11.14;56.10;101618.00;4133575;28;20046;-63
2023/05/03 00:14:42;;;;;;;12.50;6.40;;;;;;;11.01;57.11;101614.16;4146702;28;20060;-63
2023/05/03 00:16:45;;;;;;;12.27;6.75;;;;;;;11.07;57.04;101608.25;4142013;28;20053;-63
2023/05/03 00:18:49;;;;;;;11.07;6.90;;;;;;;11.07;56.03;101619.56;4116349;28;20461;-63
2023/05/03 00:20:54;;;;;;;14.13;6.85;;;;;;;10.90;56.60;101611.22;4133486;28;20042;-63
2023/05/03 00:22:56;;;;;;;11.85;5.88;;;;;;;10.83;56.58;101615.34;4140171;28;20066;-62
2023/05/03 00:25:00;;;;;;;10.88;6.13;;;;;;;10.84;56.60;101605.81;4149685;28;20038;-63
2023/05/03 00:27:05;;;;;;;11.10;6.45;;;;;;;10.85;56.55;101609.28;4149674;28;20046;-64
2023/05/03 00:29:08;;;;;;;18.10;6.85;;;;;;;10.81;56.19;101611.81;4148013;28;20467;-63
2023/05/03 00:31:11;;;;;;;10.35;5.82;;;;;;;10.78;56.98;101621.25;4130612;28;20401;-63
2023/05/03 00:33:15;;;;;;;11.80;6.43;;;;;;;10.78;56.19;101621.25;4141806;28;20042;-63
2023/05/03 00:35:19;;;;;;;9.90;5.68;;;;;;;10.69;56.53;101611.44;4116139;28;20043;-63
2023/05/03 00:37:23;;;;;;;9.50;5.95;;;;;;;10.60;57.24;101612.00;4132027;28;20090;-63
2023/05/03 00:39:25;;;;;;;13.73;6.53;;;;;;;10.58;57.19;101610.19;4133442;28;20197;-63
2023/05/03 00:41:28;;;;;;;13.10;6.10;;;;;;;10.56;57.64;101610.13;4131047;28;20042;-63
2023/05/03 00:43:31;;;;;;;15.05;6.85;;;;;;;10.63;56.62;101606.00;4138372;28;20556;-63
2023/05/03 00:45:34;;;;;;;14.55;6.50;;;;;;;10.69;57.13;101601.03;4149470;28;20038;-63
2023/05/03 00:47:38;;;;;;;11.07;6.82;;;;;;;10.60;56.45;101600.69;4131890;28;20042;-62
2023/05/03 00:49:41;;;;;;;9.90;6.00;;;;;;;10.62;55.96;101593.84;4131867;28;20046;-63
2023/05/03 00:51:46;;;;;;;16.42;8.75;;;;;;;10.52;57.14;101597.00;4115230;28;20043;-63
2023/05/03 00:53:48;;;;;;;11.45;6.15;;;;;;;10.47;57.34;101597.72;4128972;28;20050;-63
2023/05/03 00:55:53;;;;;;;15.27;6.28;;;;;;;10.47;57.01;101596.84;4130228;28;20039;-63
2023/05/03 00:57:56;;;;;;;12.98;6.00;;;;;;;10.45;56.62;101601.09;4131574;28;20400;-63
2023/05/03 00:59:59;;;;;;;12.73;6.82;;;;;;;10.41;57.20;101591.41;4131209;28;20100;-63
2023/05/03 01:02:03;;;;;;;16.35;7.00;;;;;;;10.35;57.29;101593.81;4138970;28;20038;-63
2023/05/03 01:04:07;;;;;;;11.70;5.75;;;;;;;10.19;57.53;101587.19;4147696;28;20057;-63
2023/05/03 01:06:17;;;;;;;9.88;5.47;;;;;;;10.27;57.42;101578.81;4141524;28;20090;-63
2023/05/03 01:08:30;;;;;;;12.73;6.78;;;;;;;10.37;57.19;101582.66;4143906;28;20046;-63
2023/05/03 01:10:42;;;;;;;10.23;6.18;;;;;;;10.36;56.62;101583.47;4131447;28;20038;-63
2023/05/03 01:13:00;;;;;;;9.15;5.40;;;;;;;10.17;57.50;101583.66;4131438;28;20057;-62
2023/05/03 01:15:12;;;;;;;11.35;6.85;;;;;;;10.16;57.37;101576.69;4129393;28;20516;-63
2023/05/03 01:17:15;;;;;;;14.88;7.30;;;;;;;10.19;57.49;101582.91;4130538;28;20100;-62
2023/05/03 01:19:28;;;;;;;16.45;6.53;;;;;;;10.13;57.38;101578.38;4129220;28;20471;-62
2023/05/03 01:21:34;;;;;;;14.45;6.57;;;;;;;10.07;58.18;101574.66;4162406;28;20047;-63
2023/05/03 01:23:46;;;;;;;12.50;6.80;;;;;;;10.17;57.63;101573.28;4138198;28;20042;-63
2023/05/03 01:25:53;;;;;;;12.63;7.88;;;;;;;10.31;57.01;101572.03;4146841;28;20381;-62
2023/05/03 01:27:56;;;;;;;15.85;6.55;;;;;;;10.16;57.49;101577.56;4148798;28;20070;-62
2023/05/03 01:29:59;;;;;;;12.82;7.03;;;;;;;10.17;57.37;101578.47;4131033;28;20042;-62
2023/05/03 01:32:06;;;;;;;19.33;7.97;;;;;;;10.17;57.42;101568.94;4131269;28;20382;-62
2023/05/03 01:34:18;;;;;;;13.60;6.70;;;;;;;10.12;57.85;101576.59;4131207;28;20046;-63
2023/05/03 01:36:26;;;;;;;12.40;7.10;;;;;;;10.15;57.13;101573.22;4130295;28;20054;-62
2023/05/03 01:38:33;;;;;;;12.55;6.13;;;;;;;10.02;57.03;101579.72;4137728;28;20042;-62
2023/05/03 01:40:40;;;;;;;11.95;6.55;;;;;;;10.00;57.59;101575.28;4144558;28;20040;-63
2023/05/03 01:42:44;;;;;;;15.52;7.53;;;;;;;10.05;57.73;101574.63;4141890;28;20042;-63
2023/05/03 01:44:50;;;;;;;9.68;6.50;;;;;;;10.01;57.72;101572.72;4142897;28;20038;-62
2023/05/03 01:46:53;;;;;;;17.15;7.22;;;;;;;10.04;58.00;101572.84;4128080;28;20054;-63
2023/05/03 01:48:56;;;;;;;10.63;5.90;;;;;;;9.93;57.82;101569.00;4141641;28;20491;-62
2023/05/03 01:50:59;;;;;;;17.15;6.82;;;;;;;9.98;57.90;101562.25;4138514;28;20038;-63
2023/05/03 01:53:02;;;;;;;14.40;7.22;;;;;;;10.03;57.84;101565.00;4136503;28;20523;-62
2023/05/03 01:55:05;;;;;;;11.65;6.30;;;;;;;10.00;57.41;101560.56;4122344;28;20195;-63
2023/05/03 01:57:08;;;;;;;11.30;6.75;;;;;;;9.96;57.73;101571.72;4115515;28;20043;-63
2023/05/03 01:59:12;;;;;;;12.68;5.82;;;;;;;9.92;58.07;101562.03;4128832;28;20535;-62
2023/05/03 02:01:15;;;;;;;16.75;7.03;;;;;;;9.87;58.16;101563.56;4129072;28;20034;-63
2023/05/03 02:03:19;;;;;;;12.02;6.55;;;;;;;9.82;58.22;101572.94;4126564;28;20038;-63
2023/05/03 02:05:22;;;;;;;12.25;7.10;;;;;;;9.77;57.74;101568.47;4112318;28;20049;-63
2023/05/03 02:07:25;;;;;;;11.68;6.90;;;;;;;9.74;58.04;101573.56;4127810;28;20471;-63
2023/05/03 02:09:28;;;;;;;19.58;7.10;;;;;;;9.74;58.28;101583.06;4124588;28;20105;-63
2023/05/03 02:11:31;;;;;;;11.13;6.88;;;;;;;9.72;58.56;101584.69;4112139;28;20055;-63
2023/05/03 02:13:34;;;;;;;10.32;6.97;;;;;;;9.73;58.82;101586.47;4123972;28;20074;-63
2023/05/03 02:15:39;;;;;;;16.58;7.78;;;;;;;9.73;58.64;101586.47;4126407;28;20057;-63
2023/05/03 02:17:44;;;;;;;13.80;6.72;;;;;;;9.69;58.76;101577.69;4129278;28;20639;-63
2023/05/03 02:19:47;;;;;;;16.90;7.10;;;;;;;9.76;59.03;101577.06;4115347;28;20038;-62
2023/05/03 02:21:50;;;;;;;13.80;6.97;;;;;;;9.73;58.89;101569.19;4145195;28;20045;-63
2023/05/03 02:23:53;;;;;;;16.40;7.25;;;;;;;9.69;58.67;101579.41;4125331;28;20054;-63
2023/05/03 02:25:57;;;;;;;15.27;6.82;;;;;;;9.70;58.49;101581.19;4125426;28;20409;-63
2023/05/03 02:28:00;;;;;;;14.88;7.38;;;;;;;9.73;58.60;101584.75;4127379;28;20053;-62
2023/05/03 02:30:03;;;;;;;16.13;8.10;;;;;;;9.63;58.66;101581.78;4135885;28;20043;-62
2023/05/03 02:32:15;;;;;;;14.27;7.13;;;;;;;9.64;59.00;101584.44;4121915;28;20501;-63
2023/05/03 02:34:19;;;;;;;15.73;7.22;;;;;;;9.66;59.06;101584.50;4134874;28;20042;-63
2023/05/03 02:36:22;;;;;;;11.52;6.57;;;;;;;9.58;59.04;101582.50;4125819;28;20049;-63
2023/05/03 02:38:26;;;;;;;11.77;6.90;;;;;;;9.60;59.24;101590.34;4134515;28;20486;-63
2023/05/03 02:40:28;;;;;;;16.35;6.95;;;;;;;9.60;59.24;101587.75;4122956;28;20038;-63
2023/05/03 02:42:32;;;;;;;14.43;6.93;;;;;;;9.53;59.04;101588.34;4127651;28;20038;-63
2023/05/03 02:44:36;;;;;;;13.20;7.60;;;;;;;9.51;59.58;101592.59;4109723;28;20038;-63
2023/05/03 02:46:40;;;;;;;12.52;6.95;;;;;;;9.58;58.96;101595.47;4127335;28;20389;-63
2023/05/03 02:48:45;;;;;;;;;;;;;;;9.53;58.78;101589.22;4125794;28;20038;-63
2023/05/03 02:50:48;;;;;;;13.88;7.53;;;;;;;9.48;58.82;101587.31;4113005;28;20363;-63
2023/05/03 02:52:51;;;;;;;9.77;6.63;;;;;;;9.37;58.85;101582.56;4128296;28;20050;-62
2023/05/03 02:54:53;;;;;;;16.13;7.63;;;;;;;9.34;59.16;101585.06;4122267;28;20058;-63
2023/05/03 02:56:56;;;;;;;12.85;7.75;;;;;;;9.36;59.34;101590.31;4136416;28;20049;-62
2023/05/03 02:58:59;;;;;;;18.60;7.28;;;;;;;9.43;58.99;101603.59;4125999;28;20045;-63
2023/05/03 03:01:02;;;;;;;15.57;7.18;;;;;;;9.31;58.83;101597.91;4128218;28;20517;-63
2023/05/03 03:03:05;;;;;;;17.40;7.30;;;;;;;9.21;59.26;101611.38;4124335;28;20046;-62
2023/05/03 03:05:10;;;;;;;12.52;6.85;;;;;;;9.17;59.48;101604.28;4122661;28;20038;-62
2023/05/03 03:07:20;;;;;;;14.55;7.68;;;;;;;9.20;59.31;101600.13;4112401;28;20133;-62
2023/05/03 03:09:23;;;;;;;12.18;7.18;;;;;;;9.20;59.41;101597.53;4129841;28;20125;-62
2023/05/03 03:11:26;;;;;;;14.95;6.45;;;;;;;9.14;59.54;101601.59;4147409;28;20443;-62
2023/05/03 03:13:29;;;;;;;12.23;7.40;;;;;;;9.19;59.77;101600.06;4143120;28;20070;-62
2023/05/03 03:15:33;;;;;;;15.18;8.02;;;;;;;9.17;59.75;101604.28;4131455;28;20050;-62
2023/05/03 03:17:37;;;;;;;14.85;7.50;;;;;;;9.18;59.42;101595.69;4133032;28;20042;-62
2023/05/03 03:19:42;;;;;;;15.18;7.75;;;;;;;9.04;59.71;101596.06;4129912;28;20043;-62
2023/05/03 03:21:47;;;;;;;15.27;7.35;;;;;;;9.07;59.56;101587.50;4141980;28;20036;-63
2023/05/03 03:23:50;;;;;;;15.00;8.38;;;;;;;9.05;59.73;101584.88;4131209;28;20046;-63
2023/05/03 03:25:54;;;;;;;15.18;7.65;;;;;;;9.05;59.63;101590.06;4102134;28;20047;-62
2023/05/03 03:27:56;;;;;;;13.88;7.95;;;;;;;9.07;59.68;101587.50;4111619;28;20047;-64
2023/05/03 03:30:00;;;;;;;14.60;7.60;;;;;;;9.01;60.08;101590.75;4124732;28;20043;-62
2023/05/03 03:32:07;;;;;;;10.00;6.95;;;;;;;9.12;59.75;101590.28;4116738;28;20135;-62
2023/05/03 03:34:11;;;;;;;14.95;7.63;;;;;;;8.92;60.16;101590.38;4146031;28;20042;-62
2023/05/03 03:36:14;;;;;;;14.40;7.63;;;;;;;8.95;60.32;101587.94;4135045;28;20106;-62
2023/05/03 03:38:21;;;;;;;18.88;8.32;;;;;;;8.94;60.35;101591.34;4144576;28;20037;-62
2023/05/03 03:40:31;;;;;;;14.88;7.90;;;;;;;9.00;60.40;101582.91;4121401;28;20105;-62
2023/05/03 03:42:35;;;;;;;13.50;7.93;;;;;;;8.93;60.58;101584.38;4127742;28;20507;-62
2023/05/03 03:44:39;;;;;;;14.68;7.65;;;;;;;8.99;60.27;101584.59;4114874;28;20512;-63
2023/05/03 03:46:43;;;;;;;12.80;7.53;;;;;;;8.96;60.36;101586.22;4135248;28;20528;-62
2023/05/03 03:48:47;;;;;;;19.57;8.90;;;;;;;8.94;60.25;101580.97;4130074;28;20161;-63
2023/05/03 03:50:50;;;;;;;14.80;8.35;;;;;;;8.87;60.32;101585.00;4121023;28;20373;-62
2023/05/03 03:52:55;;;;;;;13.43;7.53;;;;;;;8.85;60.82;101583.22;4127692;28;20038;-63
2023/05/03 03:55:00;;;;;;;17.08;8.85;;;;;;;8.91;60.68;101580.84;4129419;28;20069;-63
2023/05/03 03:57:03;;;;;;;12.60;8.65;;;;;;;8.91;60.86;101584.31;4126782;28;20531;-63
2023/05/03 03:59:07;;;;;;;;;;;;;;;8.89;61.07;101583.38;4125080;28;20500;-63
2023/05/03 04:01:11;;;;;;;14.63;8.93;;;;;;;8.88;60.78;101584.19;4130110;28;19934;-62
2023/05/03 04:03:16;;;;;;;15.68;7.13;;;;;;;8.87;60.83;101584.13;4124335;28;20139;-63
2023/05/03 04:05:20;;;;;;;15.02;7.80;;;;;;;8.98;60.77;101582.84;4125267;28;20038;-62
2023/05/03 04:07:23;;;;;;;16.35;8.57;;;;;;;8.99;60.48;101579.41;4116093;28;20480;-62
2023/05/03 04:09:25;;;;;;;16.02;8.52;;;;;;;9.06;60.45;101581.41;4141022;28;20455;-62
2023/05/03 04:11:30;;;;;;;12.80;8.52;;;;;;;8.91;60.73;101584.31;4129379;28;20090;-62
2023/05/03 04:13:35;;;;;;;21.40;8.60;;;;;;;8.92;60.82;101582.59;4131984;28;20192;-62
2023/05/03 04:15:38;;;;;;;15.82;9.20;;;;;;;8.88;60.97;101581.59;4123241;28;20046;-62
2023/05/03 04:17:41;;;;;;;18.45;7.95;;;;;;;8.96;61.16;101581.88;4109329;28;20073;-62
2023/05/03 04:19:46;;;;;;;19.08;9.35;;;;;;;8.89;61.10;101583.38;4138700;28;20033;-62
2023/05/03 04:21:49;;;;;;;17.33;9.07;;;;;;;8.92;60.61;101587.78;4130728;28;20615;-62
2023/05/03 04:23:53;;;;;;;13.90;7.75;;;;;;;8.93;60.76;101592.16;4137411;28;20178;-62
2023/05/03 04:25:56;;;;;;;16.10;8.48;;;;;;;8.94;60.81;101596.53;4123735;28;20125;-62
2023/05/03 04:28:03;;;;;;;15.27;9.05;;;;;;;8.91;60.79;101592.09;4137019;28;20038;-62
2023/05/03 04:30:08;;;;;;;17.17;9.15;;;;;;;8.88;60.72;101598.88;4120299;28;20508;-64
2023/05/03 04:32:13;;;;;;;12.55;8.05;;;;;;;8.86;60.95;101597.91;4132229;28;20039;-60
2023/05/03 04:34:17;;;;;;;12.52;7.25;;;;;;;8.89;61.03;101598.03;4123799;28;20069;-60
2023/05/03 04:36:25;;;;;;;12.20;8.27;;;;;;;8.94;60.95;101596.53;4119698;28;20111;-62
2023/05/03 04:38:29;;;;;;;19.63;9.90;;;;;;;9.05;60.70;101599.53;4139329;28;20050;-64
2023/05/03 04:40:35;;;;;;;15.05;8.48;;;;;;;9.02;60.57;101589.94;4128275;28;20133;-62
2023/05/03 04:42:43;;;;;;;19.35;9.23;;;;;;;9.02;60.65;101597.72;4110798;28;20081;-62
2023/05/03 04:44:47;;;;;;;16.90;8.57;;;;;;;9.10;60.61;101598.00;4129639;28;20043;-62
2023/05/03 04:46:50;;;;;;;19.00;9.32;;;;;;;9.16;60.31;101594.75;4123792;28;20034;-62
2023/05/03 04:48:53;;;;;;;17.90;8.70;;;;;;;9.08;60.63;101600.53;4125379;28;20075;-62
2023/05/03 04:50:56;;;;;;;16.45;9.05;;;;;;;9.14;60.06;101599.00;4120980;28;20104;-62
2023/05/03 04:53:00;;;;;;;18.58;8.85;;;;;;;9.10;59.96;101603.19;4126179;28;20038;-63
2023/05/03 04:55:05;;;;;;;15.63;8.75;;;;;;;9.00;60.32;101596.75;4130502;28;20042;-62
2023/05/03 04:57:09;;;;;;;12.90;8.35;;;;;;;8.93;60.61;101601.66;4130596;28;20038;-62
2023/05/03 04:59:12;;;;;;;13.73;8.40;;;;;;;8.92;60.86;101611.13;4130252;28;20038;-62
2023/05/03 05:01:16;;;;;;;17.15;8.75;;;;;;;8.97;60.69;101607.00;4113122;28;20051;-62
2023/05/03 05:03:20;;;;;;;17.35;9.38;;;;;;;9.07;60.42;101614.31;4119602;28;20185;-62
2023/05/03 05:05:24;;;;;;;14.25;8.82;;;;;;;9.07;60.17;101603.94;4123894;28;20070;-63
2023/05/03 05:07:27;;;;;;;20.42;8.75;;;;;;;8.99;60.61;101604.47;4140257;28;20137;-63
2023/05/03 05:09:30;;;;;;;15.77;7.90;;;;;;;9.09;60.35;101597.09;4123257;28;20071;-62
2023/05/03 05:11:36;;;;;;;13.07;7.65;;;;;;;9.02;60.58;101595.13;4126339;28;20089;-62
2023/05/03 05:13:39;;;;;;;16.35;9.32;;;;;;;9.11;60.32;101596.28;4160937;22;20065;-63
2023/05/03 05:15:42;;;;;;;19.38;9.45;;;;;;;9.08;60.68;101599.63;4145230;28;20054;-62
2023/05/03 05:17:48;;;;;;;;;;;;;;;9.13;60.37;101602.44;4130552;28;20045;-62
2023/05/03 05:19:52;;;;;;;;;;;;;;;8.95;60.55;101598.31;4128573;28;20324;-62
2023/05/03 05:21:55;;;;;;;19.63;9.05;;;;;;;9.01;60.62;101598.53;4146343;28;20103;-62
2023/05/03 05:24:02;;;;;;;22.08;9.10;;;;;;;9.06;60.62;101604.75;4124306;28;20042;-62
2023/05/03 05:26:05;;;;;;;20.50;9.43;;;;;;;9.15;60.41;101600.78;4114156;28;20117;-62
2023/05/03 05:28:09;;;;;;;18.50;8.95;;;;;;;9.32;59.87;101604.91;4109643;28;20050;-63
2023/05/03 05:30:13;;;;;;;17.48;9.30;;;;;;;9.24;60.11;101614.09;4130145;28;20061;-62
2023/05/03 05:32:17;;;;;;;17.88;8.98;;;;;;;9.25;60.00;101611.53;4114025;28;20043;-63
2023/05/03 05:34:22;;;;;;;15.95;8.60;;;;;;;9.32;59.80;101617.00;4123638;28;20057;-63
2023/05/03 05:36:25;;;;;;;13.25;8.52;;;;;;;9.33;59.76;101616.16;4112497;28;20039;-63
2023/05/03 05:38:28;;;;;;;17.38;8.50;;;;;;;9.18;60.15;101619.03;4113511;28;20039;-62
2023/05/03 05:40:34;;;;;;;14.65;8.43;;;;;;;9.32;60.08;101615.28;4129621;28;20485;-62
2023/05/03 05:42:37;;;;;;;16.58;9.45;;;;;;;9.35;60.01;101612.78;4112937;28;20054;-63
2023/05/03 05:44:40;;;;;;;14.10;7.80;;;;;;;9.28;60.15;101623.75;4129695;28;20049;-63
2023/05/03 05:46:45;;;;;;;15.27;8.60;;;;;;;9.32;60.41;101612.69;4107940;28;20035;-63
2023/05/03 05:48:50;;;;;;;17.85;9.73;;;;;;;9.52;59.68;101616.03;4113753;28;20112;-63
2023/05/03 05:50:54;;;;;;;18.27;9.73;;;;;;;9.52;59.41;101622.91;4112711;28;20055;-63
2023/05/03 05:52:57;;;;;;;16.13;9.57;;;;;;;9.52;59.93;101617.72;4113578;28;20043;-63
2023/05/03 05:55:03;;;;;;;15.90;9.18;;;;;;;9.54;59.70;101624.75;4112827;28;20560;-62
2023/05/03 05:57:07;;;;;;;20.70;9.65;;;;;;;9.72;59.13;101624.53;4113694;28;20039;-63
2023/05/03 05:59:11;;;;;;;18.27;9.52;;;;;;;9.69;59.38;101621.81;4114373;28;20042;-63
2023/05/03 06:01:14;;;;;;;17.95;9.30;;;;;;;9.74;58.79;101625.50;4113239;28;20042;-63
2023/05/03 06:03:17;;;;;;;24.52;9.40;;;;;;;9.82;58.26;101611.91;4113487;28;20042;-63
2023/05/03 06:05:22;;;;;;;15.35;9.38;;;;;;;9.84;58.55;101613.72;4112674;28;20039;-63
2023/05/03 06:07:27;;;;;;;13.38;7.88;;;;;;;9.98;58.07;101618.53;4111179;28;20043;-63
2023/05/03 06:09:29;;;;;;;19.60;9.25;;;;;;;9.89;58.46;101614.75;4113516;28;20503;-63
2023/05/03 06:11:37;;;;;;;15.18;8.48;;;;;;;9.97;58.48;101609.81;4113682;28;20460;-63
2023/05/03 06:13:42;;;;;;;19.77;8.85;;;;;;;9.98;57.61;101609.00;4111936;28;20039;-63
2023/05/03 06:15:47;;;;;;;15.38;8.98;;;;;;;9.99;57.68;101615.97;4112252;28;20050;-63
2023/05/03 06:17:50;;;;;;;24.20;8.95;;;;;;;9.99;58.42;101610.78;4113411;28;20528;-63
2023/05/03 06:19:53;;;;;;;15.25;9.40;;;;;;;10.08;57.64;101605.91;4113614;28;20043;-63
2023/05/03 06:21:56;;;;;;;18.98;9.73;;;;;;;10.21;57.83;101604.59;4114052;28;20086;-63
2023/05/03 06:24:01;;;;;;;18.17;9.93;;;;;;;10.41;56.90;101599.22;4129132;28;20045;-63
2023/05/03 06:26:03;;;;;;;13.77;9.38;;;;;;;10.33;57.65;101601.53;4129045;28;20035;-63
2023/05/03 06:28:07;;;;;;;20.48;9.20;;;;;;;10.44;56.63;101596.72;4113289;28;20039;-62
2023/05/03 06:30:11;;;;;;;17.98;9.52;;;;;;;10.43;56.73;101597.56;4113223;28;20049;-63
2023/05/03 06:32:15;;;;;;;;;;;;;;;10.35;57.01;101599.88;4125274;28;20060;-63
2023/05/03 06:34:20;;;;;;;15.35;7.53;;;;;;;10.35;57.34;101599.88;4122600;28;19926;-63
2023/05/03 06:36:26;;;;;;;14.93;7.63;;;;;;;10.75;55.84;101602.94;4104824;28;20035;-63
2023/05/03 06:38:29;;;;;;;13.65;7.50;;;;;;;10.67;56.40;101599.19;4130153;28;20069;-63
2023/05/03 06:40:33;;;;;;;15.90;9.13;;;;;;;10.76;56.56;101587.38;4112017;28;20039;-63
2023/05/03 06:42:40;;;;;;;13.25;8.18;;;;;;;10.86;55.96;101596.34;4112970;28;20410;-63
2023/05/03 06:44:47;;;;;;;16.35;8.65;;;;;;;10.97;55.07;101602.75;4112945;28;20043;-63
2023/05/03 06:46:49;;;;;;;17.63;8.50;;;;;;;10.95;55.67;101590.53;4130879;28;20424;-63
2023/05/03 06:48:55;;;;;;;11.93;7.53;;;;;;;10.97;56.48;101587.16;4091515;29;20043;-63
2023/05/03 06:50:57;;;;;;;13.23;8.30;;;;;;;11.14;55.21;101600.69;4126899;28;20092;-63
2023/05/03 06:53:00;;;;;;;10.80;6.55;;;;;;;11.09;56.12;101611.78;4113305;28;20509;-63
2023/05/03 06:55:04;;;;;;;17.17;9.27;;;;;;;11.18;55.34;101606.84;4129910;28;20056;-63
2023/05/03 06:57:09;;;;;;;14.70;8.55;;;;;;;11.16;54.94;101614.63;4112987;28;20524;-63
2023/05/03 06:59:12;;;;;;;17.92;8.55;;;;;;;11.22;55.40;101607.84;4129968;28;20042;-63
2023/05/03 07:01:16;;;;;;;19.55;9.82;;;;;;;11.15;55.88;101610.25;4112839;28;20046;-63
2023/05/03 07:03:19;;;;;;;16.40;9.27;;;;;;;11.22;56.07;101607.84;4128726;28;20038;-63
2023/05/03 07:05:22;;;;;;;16.85;8.60;;;;;;;11.22;55.89;101613.94;4112650;28;20501;-63
2023/05/03 07:07:25;;;;;;;14.90;7.07;;;;;;;11.31;56.32;101616.78;4112686;28;20159;-62
2023/05/03 07:09:28;;;;;;;14.50;7.68;;;;;;;11.38;55.68;101611.78;4130784;28;20042;-63
2023/05/03 07:11:48;;;;;;;11.90;8.05;;;;;;;11.45;55.84;101611.13;4122926;28;20540;-63
2023/05/03 07:13:53;;;;;;;12.65;7.90;;;;;;;11.49;55.52;101607.75;4104366;28;20062;-63
2023/05/03 07:15:56;;;;;;;10.60;7.07;;;;;;;11.55;55.54;101601.84;4086408;29;20044;-63
2023/05/03 07:17:59;;;;;;;16.33;8.95;;;;;;;11.75;55.81;101608.50;4129963;28;20548;-63
2023/05/03 07:20:03;;;;;;;14.15;7.57;;;;;;;11.89;54.97;101603.69;4112662;28;20043;-62
2023/05/03 07:22:06;;;;;;;15.93;9.32;;;;;;;12.04;53.36;101603.25;4129733;28;20412;-63
2023/05/03 07:24:11;;;;;;;14.05;8.18;;;;;;;11.94;54.08;101607.31;4129652;28;20035;-63
2023/05/03 07:26:14;;;;;;;16.83;8.32;;;;;;;12.00;54.37;101599.69;4129798;28;20066;-63
2023/05/03 07:28:17;;;;;;;11.32;7.53;;;;;;;11.98;54.65;101597.88;4126756;28;20586;-63
2023/05/03 07:30:22;;;;;;;17.23;7.60;;;;;;;12.08;54.13;101591.19;4130739;28;20096;-63
2023/05/03 07:32:24;;;;;;;12.05;8.23;;;;;;;12.13;53.82;101590.44;4129522;28;20081;-63
2023/05/03 07:34:27;;;;;;;12.82;7.55;;;;;;;12.07;54.86;101592.88;4112189;28;20039;-63
2023/05/03 07:36:30;;;;;;;19.38;11.27;;;;;;;12.20;54.24;101589.75;4129668;28;20416;-63
2023/05/03 07:38:33;;;;;;;21.20;8.95;;;;;;;12.27;54.04;101589.94;4129829;28;20397;-63
2023/05/03 07:40:36;;;;;;;19.00;8.45;;;;;;;12.11;54.48;101596.47;4129291;28;20447;-63
2023/05/03 07:42:39;;;;;;;17.00;9.10;;;;;;;12.15;53.91;101587.88;4129587;28;20089;-62
2023/05/03 07:44:42;;;;;;;17.25;8.60;;;;;;;12.05;54.26;101594.59;4105391;28;20050;-63
2023/05/03 07:46:46;;;;;;;13.95;8.13;;;;;;;11.97;54.48;101590.88;4114186;28;20039;-63
2023/05/03 07:48:49;;;;;;;16.35;8.35;;;;;;;12.01;54.79;101592.72;4106223;28;20047;-63
2023/05/03 07:50:51;;;;;;;17.83;9.13;;;;;;;12.08;54.42;101605.09;4129790;28;20401;-63
2023/05/03 07:52:55;;;;;;;18.00;8.55;;;;;;;12.11;53.80;101592.13;4129403;28;20042;-63
2023/05/03 07:54:58;;;;;;;14.48;8.60;;;;;;;12.02;54.29;101590.16;4112296;28;20045;-63
2023/05/03 07:57:02;;;;;;;10.80;7.53;;;;;;;12.10;54.47;101590.34;4129525;28;20070;-63
2023/05/03 07:59:05;;;;;;;15.07;8.95;;;;;;;12.15;54.63;101596.59;4112650;28;20134;-63
2023/05/03 08:01:12;;;;;;;14.35;8.05;;;;;;;12.27;53.50;101597.75;4131241;28;20073;-63
2023/05/03 08:03:16;;;;;;;14.32;9.10;;;;;;;12.17;53.89;101594.88;4132913;28;20034;-63
2023/05/03 08:05:19;;;;;;;18.30;8.73;;;;;;;12.31;53.94;101591.75;4132702;28;20053;-63
2023/05/03 08:07:23;;;;;;;15.27;8.82;;;;;;;12.20;54.11;101588.88;4115073;28;20058;-63
2023/05/03 08:09:27;;;;;;;17.27;8.05;;;;;;;12.24;54.29;101588.13;4132379;28;20129;-63
2023/05/03 08:11:29;;;;;;;11.98;6.75;;;;;;;12.17;55.41;101584.47;4115183;28;20039;-62
2023/05/03 08:13:32;;;;;;;14.82;9.20;;;;;;;12.39;54.37;101595.44;4131520;28;20054;-63
2023/05/03 08:15:35;;;;;;;16.45;8.52;;;;;;;12.48;53.82;101590.44;4115317;28;20106;-63
2023/05/03 08:17:42;;;;;;;16.00;9.05;;;;;;;12.52;54.13;101594.03;4132424;28;20038;-63
2023/05/03 08:19:47;;;;;;;14.88;8.68;;;;;;;12.49;54.22;101589.59;4125958;28;20065;-62
2023/05/03 08:21:53;;;;;;;15.57;7.38;;;;;;;12.49;54.25;101597.44;4132430;28;20038;-63
2023/05/03 08:23:55;;;;;;;13.65;6.93;;;;;;;12.65;55.04;101597.81;4132038;28;20493;-62
2023/05/03 08:25:59;;;;;;;18.35;7.80;;;;;;;12.91;54.58;101588.88;4129114;28;20035;-63
2023/05/03 08:28:01;;;;;;;11.23;7.30;;;;;;;12.99;53.88;101578.59;4131708;28;20081;-62
2023/05/03 08:30:06;;;;;;;12.95;6.32;;;;;;;13.08;54.10;101585.75;4131365;28;20089;-63
2023/05/03 08:32:09;;;;;;;;;;;;;;;13.31;53.46;101581.00;4115193;28;20051;-65
2023/05/03 08:34:12;;;;;;;11.60;8.07;;;;;;;13.71;52.99;101575.75;4130809;28;20388;-62
2023/05/03 08:36:16;;;;;;;16.02;8.70;;;;;;;14.17;50.79;101579.22;4131766;28;20577;-62
2023/05/03 08:38:19;;;;;;;19.88;9.07;;;;;;;14.09;50.04;101578.19;4129888;28;20096;-62
2023/05/03 08:40:22;;;;;;;13.77;7.03;;;;;;;13.74;51.80;101581.03;4131718;28;20038;-62
2023/05/03 08:42:29;;;;;;;13.48;7.50;;;;;;;13.79;51.35;101584.63;4132425;28;20038;-62
2023/05/03 08:44:36;;;;;;;14.15;7.95;;;;;;;13.79;50.58;101577.66;4130998;28;20113;-62
2023/05/03 08:46:39;;;;;;;15.93;8.15;;;;;;;13.67;51.22;101579.13;4115412;28;20472;-63
2023/05/03 08:48:43;;;;;;;14.45;8.50;;;;;;;13.74;51.70;101581.94;4128993;28;20049;-63
2023/05/03 08:50:46;;;;;;;17.83;8.57;;;;;;;13.75;51.48;101580.19;4131836;28;20093;-63
2023/05/03 08:52:50;;;;;;;12.15;7.03;;;;;;;13.77;52.14;101581.13;4131423;28;20492;-63
2023/05/03 08:54:53;;;;;;;17.15;8.68;;;;;;;13.79;51.77;101582.00;4131558;28;20042;-63
2023/05/03 08:56:56;;;;;;;10.30;7.03;;;;;;;13.89;52.00;101583.94;4114627;28;20043;-63
2023/05/03 08:59:06;;;;;;;11.52;7.03;;;;;;;13.98;52.14;101579.75;4131580;28;20050;-63
2023/05/03 09:01:09;;;;;;;13.50;7.38;;;;;;;14.05;52.42;101581.63;4130867;28;20042;-63
2023/05/03 09:03:12;;;;;;;12.85;8.50;;;;;;;14.43;50.95;101578.78;4109639;28;20051;-63
2023/05/03 09:05:37;;;;;;;11.73;7.90;;;;;;;14.71;50.74;101579.25;4130364;28;20034;-63
2023/05/03 09:07:40;;;;;;;11.40;6.25;;;;;;;14.95;49.91;101573.47;4131846;28;20042;-63
2023/05/03 09:09:44;;;;;;;12.13;7.72;;;;;;;15.25;49.25;101580.00;4113790;28;20043;-63
2023/05/03 09:11:49;;;;;;;10.75;7.03;;;;;;;15.30;49.56;101573.97;4129432;28;20038;-63
2023/05/03 09:13:52;;;;;;;13.65;7.82;;;;;;;15.49;49.08;101571.53;4130640;28;20038;-63
2023/05/03 09:15:56;;;;;;;12.77;6.53;;;;;;;15.65;47.47;101569.97;4098564;29;20047;-63
2023/05/03 09:18:18;;;;;;;14.80;8.85;;;;;;;15.73;48.16;101581.44;4113635;28;20070;-63
2023/05/03 09:20:34;;;;;;;13.38;8.40;;;;;;;15.74;46.75;101574.44;4131242;28;20058;-63
2023/05/03 09:22:50;;;;;;;12.98;6.95;;;;;;;15.66;47.79;101563.88;4130863;28;20045;-63
2023/05/03 09:24:55;;;;;;;16.88;7.75;;;;;;;16.03;47.24;101564.28;4114378;28;20615;-63
2023/05/03 09:26:58;;;;;;;13.43;7.55;;;;;;;15.99;46.68;101573.88;4113294;28;20041;-63
2023/05/03 09:29:02;;;;;;;12.55;7.85;;;;;;;15.99;46.04;101557.25;4128339;28;20129;-63
2023/05/03 09:31:06;;;;;;;11.45;6.97;;;;;;;15.80;47.63;101569.28;4130116;28;20042;-63
2023/05/03 09:33:10;;;;;;;11.20;6.65;;;;;;;15.97;45.98;101566.84;4130870;28;20081;-63
2023/05/03 09:35:14;;;;;;;14.47;6.67;;;;;;;16.14;46.03;101567.03;4113357;28;20058;-64